createdAt,value
2018-08-04T00:01:41.591Z,26.80
2018-08-04T00:04:09.804Z,26.80
2018-08-04T00:06:37.988Z,26.70
2018-08-04T00:09:09.001Z,26.70
2018-08-04T00:11:37.218Z,26.70
2018-08-04T00:14:05.489Z,26.70
2018-08-04T00:16:33.924Z,26.60
2018-08-04T00:19:02.356Z,26.60
2018-08-04T00:21:30.555Z,26.50
2018-08-04T00:23:59.068Z,26.50
2018-08-04T00:26:31.154Z,26.50
2018-08-04T00:29:00.530Z,26.50
2018-08-04T00:31:29.517Z,26.50
2018-08-04T00:33:57.722Z,26.50
2018-08-04T00:36:26.168Z,26.40
2018-08-04T00:38:54.772Z,26.30
2018-08-04T00:41:23.000Z,26.30
2018-08-04T00:43:51.737Z,26.30
2018-08-04T00:46:20.303Z,26.20
2018-08-04T00:48:48.500Z,26.20
2018-08-04T00:51:16.707Z,26.20
2018-08-04T00:53:44.883Z,26.20
2018-08-04T00:56:13.089Z,26.10
2018-08-04T01:01:09.449Z,26.00
2018-08-04T01:03:37.638Z,25.90
2018-08-04T01:06:06.001Z,25.80
2018-08-04T01:08:34.200Z,25.90
2018-08-04T01:11:02.415Z,25.80
2018-08-04T01:13:30.599Z,25.80
2018-08-04T01:15:58.814Z,25.70
2018-08-04T01:18:27.007Z,25.70
2018-08-04T01:20:55.251Z,25.70
2018-08-04T01:23:23.453Z,25.70
2018-08-04T01:25:51.636Z,25.70
2018-08-04T01:28:19.864Z,25.70
2018-08-04T01:30:48.076Z,25.70
2018-08-04T01:33:16.275Z,25.60
2018-08-04T01:35:44.480Z,25.60
2018-08-04T01:38:12.677Z,25.60
2018-08-04T01:40:40.876Z,25.50
2018-08-04T01:43:09.085Z,25.50
2018-08-04T01:45:37.284Z,25.40
2018-08-04T01:48:05.541Z,25.40
2018-08-04T01:50:33.754Z,25.50
2018-08-04T01:53:01.955Z,25.40
2018-08-04T01:55:30.153Z,25.40
2018-08-04T01:57:58.343Z,25.40
2018-08-04T02:00:26.533Z,25.50
2018-08-04T02:02:54.730Z,25.50
2018-08-04T02:05:22.913Z,25.50
2018-08-04T02:07:51.107Z,25.40
2018-08-04T02:10:19.344Z,25.40
2018-08-04T02:12:47.580Z,25.30
2018-08-04T02:15:15.764Z,25.30
2018-08-04T02:17:43.967Z,25.20
2018-08-04T02:20:12.188Z,25.10
2018-08-04T02:22:40.378Z,25.10
2018-08-04T02:25:08.608Z,25.10
2018-08-04T02:27:36.788Z,25.00
2018-08-04T02:30:05.318Z,24.90
2018-08-04T02:32:33.513Z,24.90
2018-08-04T02:35:01.711Z,24.90
2018-08-04T02:37:29.918Z,24.80
2018-08-04T02:39:58.104Z,24.80
2018-08-04T02:42:26.312Z,24.70
2018-08-04T02:44:54.734Z,24.70
2018-08-04T02:47:22.921Z,24.60
2018-08-04T02:49:51.133Z,24.60
2018-08-04T02:54:47.291Z,24.50
2018-08-04T02:57:15.495Z,24.50
2018-08-04T02:59:43.724Z,24.50
2018-08-04T03:02:11.922Z,24.50
2018-08-04T03:04:40.107Z,24.40
2018-08-04T03:07:08.321Z,24.40
2018-08-04T03:09:36.513Z,24.40
2018-08-04T03:12:04.714Z,24.40
2018-08-04T03:14:32.929Z,24.40
2018-08-04T03:17:01.120Z,24.40
2018-08-04T03:19:29.323Z,24.40
2018-08-04T03:21:57.533Z,24.40
2018-08-04T03:24:25.740Z,24.30
2018-08-04T03:26:53.928Z,24.30
2018-08-04T03:29:22.124Z,24.30
2018-08-04T03:31:50.301Z,24.20
2018-08-04T03:34:18.480Z,24.10
2018-08-04T03:36:46.672Z,24.10
2018-08-04T03:39:14.876Z,24.00
2018-08-04T03:41:43.085Z,24.00
2018-08-04T03:46:39.265Z,24.10
2018-08-04T03:49:07.443Z,24.10
2018-08-04T03:51:35.649Z,24.10
2018-08-04T03:54:03.848Z,24.20
2018-08-04T03:56:32.053Z,24.20
2018-08-04T03:59:00.244Z,24.20
2018-08-04T04:01:28.592Z,24.20
2018-08-04T04:03:56.790Z,24.10
2018-08-04T04:06:24.987Z,24.00
2018-08-04T04:08:53.180Z,24.10
2018-08-04T04:11:21.404Z,24.10
2018-08-04T04:13:49.599Z,24.10
2018-08-04T04:16:17.968Z,24.10
2018-08-04T04:18:46.184Z,24.10
2018-08-04T04:21:14.434Z,24.10
2018-08-04T04:23:42.643Z,24.10
2018-08-04T04:26:10.848Z,24.10
2018-08-04T04:28:39.040Z,24.10
2018-08-04T04:31:07.267Z,24.00
2018-08-04T04:33:35.661Z,24.00
2018-08-04T04:36:03.861Z,24.00
2018-08-04T04:38:32.062Z,24.00
2018-08-04T04:41:00.249Z,23.90
2018-08-04T04:43:28.442Z,23.90
2018-08-04T04:45:56.647Z,23.90
2018-08-04T04:48:24.873Z,23.90
2018-08-04T04:50:54.320Z,23.90
2018-08-04T04:53:22.517Z,23.90
2018-08-04T04:55:50.732Z,23.90
2018-08-04T04:58:18.925Z,23.90
2018-08-04T05:00:47.097Z,23.90
2018-08-04T05:03:15.318Z,24.00
2018-08-04T05:05:43.509Z,23.90
2018-08-04T05:08:11.699Z,23.90
2018-08-04T05:10:40.014Z,24.00
2018-08-04T05:13:08.390Z,23.90
2018-08-04T05:15:36.584Z,24.00
2018-08-04T05:18:05.037Z,24.00
2018-08-04T05:20:33.240Z,24.10
2018-08-04T05:23:01.436Z,24.10
2018-08-04T05:25:29.638Z,24.10
2018-08-04T05:27:57.848Z,24.20
2018-08-04T05:30:26.049Z,24.20
2018-08-04T05:32:54.265Z,24.20
2018-08-04T05:35:22.625Z,24.20
2018-08-04T05:37:50.824Z,24.30
2018-08-04T05:40:19.029Z,24.30
2018-08-04T05:42:47.244Z,24.30
2018-08-04T05:45:15.444Z,24.40
2018-08-04T05:47:43.644Z,24.40
2018-08-04T05:52:39.838Z,24.50
2018-08-04T05:55:08.033Z,24.60
2018-08-04T05:57:36.216Z,24.60
2018-08-04T06:02:33.333Z,24.70
2018-08-04T06:05:01.553Z,24.70
2018-08-04T06:07:29.748Z,24.80
2018-08-04T06:12:25.891Z,24.90
2018-08-04T06:14:54.087Z,24.90
2018-08-04T06:17:22.307Z,25.00
2018-08-04T06:19:50.543Z,25.10
2018-08-04T06:22:18.745Z,25.10
2018-08-04T06:24:47.033Z,25.20
2018-08-04T06:27:15.261Z,25.30
2018-08-04T06:29:43.837Z,25.30
2018-08-04T06:32:12.041Z,25.40
2018-08-04T06:34:40.244Z,25.50
2018-08-04T06:37:08.513Z,25.50
2018-08-04T06:39:36.700Z,25.60
2018-08-04T06:42:04.936Z,25.70
2018-08-04T06:44:33.160Z,25.80
2018-08-04T06:47:01.458Z,25.90
2018-08-04T06:49:30.113Z,25.90
2018-08-04T06:51:58.344Z,26.00
2018-08-04T06:54:26.563Z,26.00
2018-08-04T06:56:54.786Z,26.10
2018-08-04T06:59:22.984Z,26.10
2018-08-04T07:01:51.187Z,26.20
2018-08-04T07:04:19.388Z,26.20
2018-08-04T07:06:47.797Z,26.30
2018-08-04T07:09:16.005Z,26.40
2018-08-04T07:11:44.221Z,26.50
2018-08-04T07:14:12.435Z,26.50
2018-08-04T07:16:40.620Z,26.50
2018-08-04T07:19:08.833Z,26.60
2018-08-04T07:21:37.059Z,26.70
2018-08-04T07:24:05.457Z,26.70
2018-08-04T07:26:33.657Z,26.80
2018-08-04T07:29:01.897Z,26.90
2018-08-04T07:31:30.168Z,26.90
2018-08-04T07:33:58.363Z,27.00
2018-08-04T07:36:26.561Z,27.10
2018-08-04T07:38:54.797Z,27.20
2018-08-04T07:41:22.992Z,27.20
2018-08-04T07:43:51.205Z,27.30
2018-08-04T07:46:19.426Z,27.40
2018-08-04T07:48:47.653Z,27.40
2018-08-04T07:51:15.877Z,27.50
2018-08-04T07:53:44.077Z,27.60
2018-08-04T07:56:12.280Z,27.70
2018-08-04T07:58:40.488Z,27.70
2018-08-04T08:01:08.685Z,27.80
2018-08-04T08:03:36.885Z,27.90
2018-08-04T08:06:05.215Z,27.90
2018-08-04T08:08:33.404Z,28.00
2018-08-04T08:11:01.675Z,28.00
2018-08-04T08:13:29.799Z,28.10
2018-08-04T08:15:58.014Z,28.10
2018-08-04T08:18:26.212Z,28.20
2018-08-04T08:20:54.456Z,28.30
2018-08-04T08:23:22.661Z,28.30
2018-08-04T08:26:02.007Z,28.40
2018-08-04T08:28:30.191Z,28.40
2018-08-04T08:30:58.423Z,28.50
2018-08-04T08:33:26.625Z,28.60
2018-08-04T08:35:54.837Z,28.70
2018-08-04T08:38:23.189Z,28.70
2018-08-04T08:40:51.441Z,28.80
2018-08-04T08:43:19.633Z,28.90
2018-08-04T08:45:47.857Z,28.90
2018-08-04T08:48:16.104Z,28.90
2018-08-04T08:50:44.345Z,29.00
2018-08-04T08:53:12.678Z,29.00
2018-08-04T08:55:40.840Z,29.00
2018-08-04T08:58:09.053Z,29.10
2018-08-04T09:00:37.249Z,29.20
2018-08-04T09:03:05.638Z,29.20
2018-08-04T09:05:33.824Z,29.30
2018-08-04T09:08:02.469Z,29.40
2018-08-04T09:10:30.660Z,29.40
2018-08-04T09:12:58.891Z,29.50
2018-08-04T09:15:27.104Z,29.50
2018-08-04T09:17:55.309Z,29.60
2018-08-04T09:20:23.521Z,29.70
2018-08-04T09:22:52.028Z,29.70
2018-08-04T09:25:20.233Z,29.80
2018-08-04T09:27:48.442Z,29.90
2018-08-04T09:30:16.623Z,29.90
2018-08-04T09:32:45.183Z,30.00
2018-08-04T09:35:14.529Z,30.10
2018-08-04T09:37:42.763Z,30.20
2018-08-04T09:40:13.060Z,30.30
2018-08-04T09:45:10.138Z,30.30
2018-08-04T09:47:38.908Z,30.40
2018-08-04T09:50:08.290Z,30.50
2018-08-04T09:52:36.650Z,30.50
2018-08-04T09:55:05.427Z,30.60
2018-08-04T09:57:33.615Z,30.70
2018-08-04T10:00:01.864Z,30.70
2018-08-04T10:02:30.075Z,30.80
2018-08-04T10:04:58.267Z,30.90
2018-08-04T10:07:26.516Z,30.90
2018-08-04T10:09:54.686Z,31.00
2018-08-04T10:12:22.889Z,31.10
2018-08-04T10:17:19.124Z,31.20
2018-08-04T10:19:47.308Z,31.20
2018-08-04T10:22:15.492Z,31.30
2018-08-04T10:27:11.705Z,31.40
2018-08-04T10:29:39.903Z,31.50
2018-08-04T10:32:08.096Z,31.50
2018-08-04T10:34:36.277Z,31.50
2018-08-04T10:37:04.511Z,31.60
2018-08-04T10:39:32.716Z,31.60
2018-08-04T10:42:00.901Z,31.60
2018-08-04T10:44:29.110Z,31.70
2018-08-04T10:46:57.296Z,31.70
2018-08-04T10:49:25.529Z,31.70
2018-08-04T10:51:53.704Z,31.80
2018-08-04T10:54:21.919Z,31.80
2018-08-04T10:56:50.158Z,31.90
2018-08-04T10:59:18.382Z,31.90
2018-08-04T11:01:46.604Z,32.00
2018-08-04T11:04:14.795Z,32.10
2018-08-04T11:06:43.006Z,32.10
2018-08-04T11:09:11.939Z,32.20
2018-08-04T11:11:40.247Z,32.20
2018-08-04T11:14:09.081Z,32.30
2018-08-04T11:16:37.885Z,32.30
2018-08-04T11:19:06.131Z,32.30
2018-08-04T11:21:34.314Z,32.40
2018-08-04T11:24:02.520Z,32.50
2018-08-04T11:26:30.715Z,32.50
2018-08-04T11:28:58.949Z,32.50
2018-08-04T11:31:27.149Z,32.60
2018-08-04T11:33:55.343Z,32.70
2018-08-04T11:36:23.536Z,32.70
2018-08-04T11:38:51.729Z,32.70
2018-08-04T11:41:19.923Z,32.80
2018-08-04T11:43:48.148Z,32.90
2018-08-04T11:46:16.365Z,32.90
2018-08-04T11:51:12.495Z,33.00
2018-08-04T11:53:40.716Z,33.00
2018-08-04T11:56:08.897Z,33.00
2018-08-04T11:58:37.092Z,32.90
2018-08-04T12:01:05.251Z,32.80
2018-08-04T12:03:33.455Z,32.70
2018-08-04T12:06:01.636Z,32.60
2018-08-04T12:08:29.829Z,32.60
2018-08-04T12:10:58.017Z,32.60
2018-08-04T12:13:26.200Z,32.60
2018-08-04T12:15:54.401Z,32.70
2018-08-04T12:18:22.601Z,32.70
2018-08-04T12:20:50.792Z,32.70
2018-08-04T12:23:18.988Z,32.60
2018-08-04T12:25:47.337Z,32.50
2018-08-04T12:28:15.557Z,32.60
2018-08-04T12:30:43.732Z,32.70
2018-08-04T12:33:11.925Z,32.80
2018-08-04T12:35:40.137Z,32.90
2018-08-04T12:38:08.332Z,33.00
2018-08-04T12:40:36.545Z,33.00
2018-08-04T12:43:04.853Z,32.90
2018-08-04T12:45:33.097Z,32.80
2018-08-04T12:48:01.252Z,32.70
2018-08-04T12:50:29.457Z,32.70
2018-08-04T12:52:57.677Z,32.60
2018-08-04T12:57:53.851Z,32.50
2018-08-04T13:00:22.049Z,32.40
2018-08-04T13:02:50.373Z,32.40
2018-08-04T13:05:18.625Z,32.30
2018-08-04T13:07:46.824Z,32.40
2018-08-04T13:10:15.048Z,32.40
2018-08-04T13:12:44.188Z,32.40
2018-08-04T13:15:12.420Z,32.50
2018-08-04T13:17:40.617Z,32.60
2018-08-04T13:20:08.807Z,32.70
2018-08-04T13:22:37.042Z,32.80
2018-08-04T13:25:05.780Z,32.90
2018-08-04T13:27:33.970Z,32.90
2018-08-04T13:30:02.609Z,33.00
2018-08-04T13:32:30.847Z,33.20
2018-08-04T13:34:59.048Z,33.20
2018-08-04T13:37:27.260Z,33.20
2018-08-04T13:42:23.449Z,33.30
2018-08-04T13:44:51.671Z,33.20
2018-08-04T13:47:19.868Z,33.30
2018-08-04T13:49:48.057Z,33.30
2018-08-04T13:52:16.297Z,33.20
2018-08-04T13:54:44.505Z,33.10
2018-08-04T13:57:12.719Z,33.00
2018-08-04T13:59:40.936Z,32.90
2018-08-04T14:02:09.152Z,32.90
2018-08-04T14:04:37.377Z,32.90
2018-08-04T14:07:05.828Z,32.90
2018-08-04T14:09:34.037Z,33.00
2018-08-04T14:12:02.318Z,33.00
2018-08-04T14:14:30.475Z,32.90
2018-08-04T14:16:58.711Z,32.80
2018-08-04T14:19:26.917Z,32.80
2018-08-04T14:21:55.154Z,32.70
2018-08-04T14:24:23.406Z,32.60
2018-08-04T14:26:51.627Z,32.60
2018-08-04T14:29:19.873Z,32.50
2018-08-04T14:31:48.132Z,32.50
2018-08-04T14:34:26.864Z,32.50
2018-08-04T14:36:55.085Z,32.40
2018-08-04T14:39:23.321Z,32.40
2018-08-04T14:41:51.583Z,32.30
2018-08-04T14:44:19.794Z,32.30
2018-08-04T14:46:48.012Z,32.20
2018-08-04T14:49:16.240Z,32.20
2018-08-04T14:51:44.449Z,32.20
2018-08-04T14:56:40.675Z,32.10
2018-08-04T14:59:08.873Z,32.20
2018-08-04T15:01:37.098Z,32.40
2018-08-04T15:04:05.556Z,32.50
2018-08-04T15:06:33.780Z,32.50
2018-08-04T15:09:02.106Z,32.60
2018-08-04T15:11:30.342Z,32.60
2018-08-04T15:13:58.595Z,32.70
2018-08-04T15:16:26.813Z,32.80
2018-08-04T15:18:55.110Z,32.60
2018-08-04T15:21:23.411Z,32.60
2018-08-04T15:23:51.616Z,32.60
2018-08-04T15:26:19.861Z,32.60
2018-08-04T15:28:48.080Z,32.60
2018-08-04T15:31:16.294Z,32.60
2018-08-04T15:33:44.543Z,32.60
2018-08-04T15:36:12.747Z,32.60
2018-08-04T15:38:40.980Z,32.60
2018-08-04T15:41:09.224Z,32.60
2018-08-04T15:43:37.468Z,32.60
2018-08-04T15:46:05.684Z,32.70
2018-08-04T15:48:33.889Z,32.70
2018-08-04T15:51:02.147Z,32.70
2018-08-04T15:53:30.356Z,32.70
2018-08-04T15:55:58.570Z,32.70
2018-08-04T15:58:26.753Z,32.60
2018-08-04T16:00:54.965Z,32.60
2018-08-04T16:03:23.151Z,32.60
2018-08-04T16:05:51.456Z,32.50
2018-08-04T16:08:19.647Z,32.50
2018-08-04T16:10:47.846Z,32.40
2018-08-04T16:13:16.039Z,32.40
2018-08-04T16:15:44.817Z,32.30
2018-08-04T16:18:13.041Z,32.30
2018-08-04T16:20:41.241Z,32.20
2018-08-04T16:23:09.472Z,32.20
2018-08-04T16:25:37.668Z,32.10
2018-08-04T16:28:05.849Z,32.20
2018-08-04T16:30:34.039Z,32.20
2018-08-04T16:33:02.228Z,32.30
2018-08-04T16:35:30.431Z,32.30
2018-08-04T16:37:58.626Z,32.40
2018-08-04T16:40:27.008Z,32.50
2018-08-04T16:42:55.196Z,32.50
2018-08-04T16:45:23.407Z,32.50
2018-08-04T16:47:51.689Z,32.50
2018-08-04T16:50:19.900Z,32.50
2018-08-04T16:52:48.113Z,32.60
2018-08-04T16:55:16.313Z,32.60
2018-08-04T17:00:12.697Z,32.50
2018-08-04T17:02:40.908Z,32.50
2018-08-04T17:05:09.225Z,32.40
2018-08-04T17:07:37.440Z,32.30
2018-08-04T17:10:06.086Z,32.30
2018-08-04T17:12:34.288Z,32.20
2018-08-04T17:15:02.544Z,32.20
2018-08-04T17:17:30.753Z,32.20
2018-08-04T17:19:58.949Z,32.10
2018-08-04T17:22:27.173Z,32.10
2018-08-04T17:24:55.640Z,32.10
2018-08-04T17:27:24.130Z,32.10
2018-08-04T17:29:52.321Z,32.10
2018-08-04T17:32:20.501Z,32.10
2018-08-04T17:34:48.709Z,32.10
2018-08-04T17:37:16.954Z,32.10
2018-08-04T17:39:45.118Z,32.10
2018-08-04T17:42:13.312Z,32.00
2018-08-04T17:44:41.559Z,32.00
2018-08-04T17:47:09.752Z,31.90
2018-08-04T17:49:37.943Z,31.90
2018-08-04T17:52:06.155Z,32.00
2018-08-04T17:54:34.535Z,31.90
2018-08-04T17:57:02.836Z,31.90
2018-08-04T17:59:31.041Z,31.80
2018-08-04T18:01:59.459Z,31.70
2018-08-04T18:06:55.596Z,31.50
2018-08-04T18:09:23.780Z,31.50
2018-08-04T18:11:51.975Z,31.40
2018-08-04T18:14:20.167Z,31.20
2018-08-04T18:16:48.344Z,31.00
2018-08-04T18:19:16.557Z,30.80
2018-08-04T18:21:44.744Z,30.70
2018-08-04T18:24:12.948Z,30.60
2018-08-04T18:26:41.111Z,30.50
2018-08-04T18:29:09.304Z,30.40
2018-08-04T18:31:37.493Z,30.30
2018-08-04T18:34:05.859Z,30.10
2018-08-04T18:36:34.040Z,30.00
2018-08-04T18:39:02.245Z,29.90
2018-08-04T18:41:30.432Z,29.90
2018-08-04T18:43:58.645Z,29.80
2018-08-04T18:46:26.839Z,29.70
2018-08-04T18:48:54.999Z,29.60
2018-08-04T18:51:23.215Z,29.60
2018-08-04T18:53:51.399Z,29.60
2018-08-04T18:56:19.600Z,29.60
2018-08-04T18:58:47.777Z,29.60
2018-08-04T19:01:15.977Z,29.50
2018-08-04T19:03:44.156Z,29.50
2018-08-04T19:06:12.349Z,29.40
2018-08-04T19:08:40.536Z,29.40
2018-08-04T19:11:08.732Z,29.40
2018-08-04T19:13:36.927Z,29.40
2018-08-04T19:16:05.299Z,29.30
2018-08-04T19:18:33.455Z,29.30
2018-08-04T19:21:01.657Z,29.20
2018-08-04T19:23:29.983Z,29.20
2018-08-04T19:25:58.185Z,29.20
2018-08-04T19:28:26.405Z,29.10
2018-08-04T19:30:54.566Z,29.10
2018-08-04T19:33:22.749Z,29.10
2018-08-04T19:35:50.965Z,29.10
2018-08-04T19:38:19.153Z,29.10
2018-08-04T19:40:47.353Z,29.00
2018-08-04T19:43:15.549Z,29.00
2018-08-04T19:45:43.743Z,29.00
2018-08-04T19:48:12.012Z,28.90
2018-08-04T19:50:40.148Z,28.90
2018-08-04T19:53:08.349Z,28.90
2018-08-04T19:55:36.556Z,28.90
2018-08-04T19:58:04.788Z,28.90
2018-08-04T20:00:32.963Z,28.80
2018-08-04T20:03:01.172Z,28.80
2018-08-04T20:05:29.360Z,28.70
2018-08-04T20:07:57.555Z,28.70
2018-08-04T20:12:53.704Z,28.70
2018-08-04T20:17:49.844Z,28.70
2018-08-04T20:22:45.976Z,28.70
2018-08-04T20:27:42.131Z,28.70
2018-08-04T20:30:10.335Z,28.70
2018-08-04T20:32:38.553Z,28.60
2018-08-04T20:35:06.770Z,28.60
2018-08-04T20:37:34.968Z,28.60
2018-08-04T20:40:03.400Z,28.60
2018-08-04T20:42:31.589Z,28.50
2018-08-04T20:44:59.789Z,28.50
2018-08-04T20:47:27.989Z,28.50
2018-08-04T20:49:56.201Z,28.40
2018-08-04T20:52:24.385Z,28.40
2018-08-04T20:54:52.996Z,28.40
2018-08-04T20:57:21.183Z,28.30
2018-08-04T20:59:49.385Z,28.30
2018-08-04T21:02:17.574Z,28.30
2018-08-04T21:04:45.763Z,28.20
2018-08-04T21:07:13.951Z,28.20
2018-08-04T21:09:42.151Z,28.20
2018-08-04T21:12:10.340Z,28.20
2018-08-04T21:14:38.538Z,28.10
2018-08-04T21:17:06.919Z,28.10
2018-08-04T21:19:35.116Z,28.10
2018-08-04T21:22:03.324Z,28.10
2018-08-04T21:24:31.515Z,28.10
2018-08-04T21:26:59.740Z,28.10
2018-08-04T21:29:27.931Z,28.00
2018-08-04T21:31:56.125Z,27.90
2018-08-04T21:34:24.320Z,27.90
2018-08-04T21:36:52.519Z,27.80
2018-08-04T21:39:20.931Z,27.70
2018-08-04T21:41:49.305Z,27.60
2018-08-04T21:44:17.530Z,27.60
2018-08-04T21:46:53.040Z,27.60
2018-08-04T21:49:21.309Z,27.60
2018-08-04T21:51:50.537Z,27.60
2018-08-04T21:54:19.919Z,27.60
2018-08-04T21:56:47.790Z,27.50
2018-08-04T21:59:16.176Z,27.50
2018-08-04T22:01:49.729Z,27.50
2018-08-04T22:04:17.913Z,27.50
2018-08-04T22:07:55.526Z,27.50
2018-08-04T22:10:23.733Z,27.50
2018-08-04T22:12:51.931Z,27.40
2018-08-04T22:15:20.140Z,27.40
2018-08-04T22:17:48.326Z,27.30
2018-08-04T22:20:17.814Z,27.30
2018-08-04T22:25:18.355Z,27.30
2018-08-04T22:27:46.556Z,27.20
2018-08-04T22:30:15.941Z,27.20
2018-08-04T22:32:44.756Z,27.20
2018-08-04T22:35:12.952Z,27.10
2018-08-04T22:37:41.730Z,27.10
2018-08-04T22:40:10.980Z,27.00
2018-08-04T22:42:39.468Z,27.00
2018-08-04T22:45:53.217Z,27.10
2018-08-04T22:50:50.014Z,27.00
2018-08-04T22:53:18.674Z,27.10
2018-08-04T22:55:46.874Z,27.00
2018-08-04T22:58:15.053Z,27.00
2018-08-04T23:00:44.202Z,27.00
2018-08-04T23:03:13.091Z,27.00
2018-08-04T23:08:09.962Z,27.00
2018-08-04T23:10:38.846Z,27.00
2018-08-04T23:15:35.565Z,27.00
2018-08-04T23:18:03.824Z,26.90
2018-08-04T23:20:32.012Z,26.90
2018-08-04T23:23:00.543Z,26.90
2018-08-04T23:25:28.788Z,26.80
2018-08-04T23:27:56.992Z,26.80
2018-08-04T23:30:25.182Z,26.70
2018-08-04T23:32:53.857Z,26.70
2018-08-04T23:35:23.748Z,26.50
2018-08-04T23:37:52.137Z,26.50
2018-08-04T23:40:20.724Z,26.50
2018-08-04T23:42:48.906Z,26.50
2018-08-04T23:45:17.110Z,26.50
2018-08-04T23:47:45.427Z,26.50
2018-08-04T23:50:13.683Z,26.40
2018-08-04T23:52:42.094Z,26.50
2018-08-04T23:55:10.289Z,26.50
2018-08-04T23:57:38.534Z,26.50
